Kenneth Carl — WDF8246 — position and weather

sailwx.info

Track history (hours):
 
Tides and Currents Weather Stations Pressure Air Temp Water Temp Dewpoint Dewpoint Depression Visibility Wind Speed Wind Dir Waves Ship Positions

Kenneth Carl

Owner: So. Cal. Ship Services, Inc., San Pedro, CA. More information available from US FCC via Universal Licensing System and Coast Guard Vessel Documentation Center.

Last reported at 2018-Apr-24 23:00 UTC. Time now 2018-Apr-24 23:06 UTC.
Position N 33°44' W 118°16'.

Length 31 m; draft 3 m.

Type: Ship. MMSI: 367492920.

Date/timePositionNaut miles runAvg speedWind from/ knotsBaromVisibWave heightAir tempDewpointWater temp
2018-Apr-24 23:00N 33°44' W 118°16'0 0.0
2018-Apr-24 22:30N 33°44' W 118°16'0 0.0
2018-Apr-24 22:00N 33°44' W 118°16'0 0.0
2018-Apr-24 21:31N 33°44' W 118°16'0 0.0
2018-Apr-24 21:00N 33°44' W 118°16'0 0.0
2018-Apr-24 20:30N 33°44' W 118°16'0 0.0
2018-Apr-24 20:01N 33°44' W 118°16'0 0.0
2018-Apr-24 19:31N 33°44' W 118°16'0 0.0
2018-Apr-24 19:01N 33°44' W 118°16'0 0.0
2018-Apr-24 18:30N 33°44' W 118°16'0 0.0
2018-Apr-24 18:01N 33°44' W 118°16'0 0.0
2018-Apr-24 17:30N 33°44' W 118°16'0 0.0
2018-Apr-24 17:00N 33°44' W 118°16'0 0.0
2018-Apr-24 16:30N 33°44' W 118°16'0 0.0
2018-Apr-24 16:00N 33°44' W 118°16'0 0.0
2018-Apr-24 15:30N 33°44' W 118°16'0 0.0
2018-Apr-24 15:01N 33°44' W 118°16'0 0.0
2018-Apr-24 14:30N 33°44' W 118°16'0 0.0
2018-Apr-24 14:00N 33°44' W 118°16'0 0.0
2018-Apr-24 13:30N 33°44' W 118°16'0 0.0
2018-Apr-24 13:01N 33°44' W 118°16'0 0.0
2018-Apr-24 12:30N 33°44' W 118°16'0 0.0
2018-Apr-24 12:01N 33°44' W 118°16'0 0.0
2018-Apr-24 11:30N 33°44' W 118°16'0 0.0
2018-Apr-24 11:00N 33°44' W 118°16'0 0.0
2018-Apr-24 10:30N 33°44' W 118°16'0 0.0
2018-Apr-24 10:01N 33°44' W 118°16'0 0.0
2018-Apr-24 09:30N 33°44' W 118°16'0 0.0
2018-Apr-24 09:01N 33°44' W 118°16'0 0.0
2018-Apr-24 08:30N 33°44' W 118°16'0 0.0
2018-Apr-24 08:00N 33°44' W 118°16'0 0.0
2018-Apr-24 07:31N 33°44' W 118°16'0 0.0
2018-Apr-24 07:01N 33°44' W 118°16'0 0.0
2018-Apr-24 06:30N 33°44' W 118°16'0 0.0
2018-Apr-24 06:01N 33°44' W 118°16'0 0.0
2018-Apr-24 05:30N 33°44' W 118°16'0 0.0
2018-Apr-24 05:00N 33°44' W 118°16'0 0.0
2018-Apr-24 04:30N 33°44' W 118°16'0 0.0
2018-Apr-24 04:01N 33°44' W 118°16'0 0.0
2018-Apr-24 03:31N 33°44' W 118°16'0 0.0
2018-Apr-24 03:00N 33°44' W 118°16'0 0.0
2018-Apr-24 02:31N 33°44' W 118°16'0 0.0
2018-Apr-24 02:00N 33°44' W 118°16'0 0.0
2018-Apr-24 01:30N 33°44' W 118°16'0 0.0
2018-Apr-24 01:00N 33°44' W 118°16'0 0.0
2018-Apr-24 00:30N 33°44' W 118°16'0 0.0
2018-Apr-24 00:00N 33°44' W 118°16'0 0.0
2018-Apr-23 23:30N 33°44' W 118°16'0 0.0
2018-Apr-23 23:00N 33°44' W 118°16'4 8.2
2018-Apr-23 22:30N 33°41' W 118°13'810.0
2018-Apr-23 21:45N 33°35' W 118°08'1 3.8
2018-Apr-23 21:26N 33°34' W 118°07'1 1.7
2018-Apr-23 20:42N 33°35' W 118°08'0 0.2
2018-Apr-23 20:26N 33°35' W 118°08'0 0.0
2018-Apr-23 19:59N 33°35' W 118°08'0 0.0
2018-Apr-23 19:29N 33°35' W 118°08'0 0.0
2018-Apr-23 19:00N 33°35' W 118°08'0 0.0
2018-Apr-23 18:11N 33°35' W 118°08'0 0.0
2018-Apr-23 18:00N 33°35' W 118°08'4 3.4
2018-Apr-23 16:43N 33°38' W 118°11'210.0
2018-Apr-23 16:30N 33°40' W 118°13'5 9.5
2018-Apr-23 16:00N 33°44' W 118°16'0 0.8
2018-Apr-23 15:30N 33°44' W 118°16'0 0.0
2018-Apr-23 15:00N 33°44' W 118°16'0 0.0
2018-Apr-23 14:30N 33°44' W 118°16'0 0.0
2018-Apr-23 14:00N 33°44' W 118°16'0 0.7
2018-Apr-23 13:30N 33°44' W 118°16'0 0.0
2018-Apr-23 13:00N 33°44' W 118°16'0 0.0
2018-Apr-23 12:30N 33°44' W 118°16'0 0.7
2018-Apr-23 11:58N 33°44' W 118°16'0 0.0
2018-Apr-23 11:28N 33°44' W 118°16'0 0.0
2018-Apr-23 10:58N 33°44' W 118°16'0 0.0
2018-Apr-23 10:28N 33°44' W 118°16'0 0.0
2018-Apr-23 09:58N 33°44' W 118°16'0 0.0
2018-Apr-23 09:28N 33°44' W 118°16'0 0.0
2018-Apr-23 08:58N 33°44' W 118°16'0 0.0
2018-Apr-23 08:28N 33°44' W 118°16'0 0.0
2018-Apr-23 07:58N 33°44' W 118°16'0 0.0
2018-Apr-23 07:28N 33°44' W 118°16'0 0.0
2018-Apr-23 06:58N 33°44' W 118°16'0 0.0
2018-Apr-23 06:28N 33°44' W 118°16'0 0.0
2018-Apr-23 05:58N 33°44' W 118°16'0 0.0
2018-Apr-23 05:28N 33°44' W 118°16'0 0.0
2018-Apr-23 04:58N 33°44' W 118°16'0 0.0
2018-Apr-23 04:28N 33°44' W 118°16'0 0.0
2018-Apr-23 03:58N 33°44' W 118°16'0 0.0
2018-Apr-23 03:28N 33°44' W 118°16'0 0.0
2018-Apr-23 02:58N 33°44' W 118°16'0 0.0
2018-Apr-23 02:28N 33°44' W 118°16'0 0.0
2018-Apr-23 01:58N 33°44' W 118°16'0 0.0
2018-Apr-23 01:28N 33°44' W 118°16'0 0.0
2018-Apr-23 00:55N 33°44' W 118°16'0 0.0
2018-Apr-23 00:28N 33°44' W 118°16'0 0.0
2018-Apr-22 23:58N 33°44' W 118°16'0 0.0
2018-Apr-22 23:28N 33°44' W 118°16'0 0.0
2018-Apr-22 22:58N 33°44' W 118°16'0 0.0
2018-Apr-22 22:28N 33°44' W 118°16'0 0.0
2018-Apr-22 21:58N 33°44' W 118°16'0 0.0
2018-Apr-22 21:28N 33°44' W 118°16'0 0.0
2018-Apr-22 20:58N 33°44' W 118°16'0 0.0
2018-Apr-22 20:28N 33°44' W 118°16'0 0.0
2018-Apr-22 19:58N 33°44' W 118°16'0 0.0
2018-Apr-22 19:28N 33°44' W 118°16'0 0.0
2018-Apr-22 18:58N 33°44' W 118°16'0 0.0
2018-Apr-22 18:25N 33°44' W 118°16'0 0.0
2018-Apr-22 17:58N 33°44' W 118°16'0 0.0
2018-Apr-22 17:28N 33°44' W 118°16'0 0.0
2018-Apr-22 16:49N 33°44' W 118°16'0 0.0
2018-Apr-22 16:28N 33°44' W 118°16'0 0.0
2018-Apr-22 15:58N 33°44' W 118°16'0 0.0
2018-Apr-22 15:28N 33°44' W 118°16'0 0.0
2018-Apr-22 14:58N 33°44' W 118°16'0 0.0
2018-Apr-22 14:28N 33°44' W 118°16'0 0.0
2018-Apr-22 13:58N 33°44' W 118°16'0 0.0
2018-Apr-22 13:28N 33°44' W 118°16'0 0.0
2018-Apr-22 12:58N 33°44' W 118°16'0 0.0
2018-Apr-22 12:28N 33°44' W 118°16'0 0.0
2018-Apr-22 11:58N 33°44' W 118°16'0 0.0
2018-Apr-22 11:28N 33°44' W 118°16'0 0.0
2018-Apr-22 10:58N 33°44' W 118°16'0 0.0
2018-Apr-22 10:28N 33°44' W 118°16'0 0.0
2018-Apr-22 09:58N 33°44' W 118°16'0 0.0
2018-Apr-22 09:28N 33°44' W 118°16'0 0.0
2018-Apr-22 08:58N 33°44' W 118°16'0 0.0
2018-Apr-22 08:28N 33°44' W 118°16'0 0.0
2018-Apr-22 07:58N 33°44' W 118°16'0 0.0
2018-Apr-22 07:25N 33°44' W 118°16'0 0.0
2018-Apr-22 06:58N 33°44' W 118°16'0 0.0
2018-Apr-22 06:28N 33°44' W 118°16'0 0.0
2018-Apr-22 05:58N 33°44' W 118°16'0 0.0
2018-Apr-22 05:25N 33°44' W 118°16'0 0.0
2018-Apr-22 04:58N 33°44' W 118°16'0 0.0
2018-Apr-22 04:28N 33°44' W 118°16'0 0.0
2018-Apr-22 03:55N 33°44' W 118°16'0 0.0
2018-Apr-22 03:28N 33°44' W 118°16'0 0.0
2018-Apr-22 02:58N 33°44' W 118°16'0 0.0
2018-Apr-22 02:28N 33°44' W 118°16'0 0.0
2018-Apr-22 01:58N 33°44' W 118°16'0 0.0
2018-Apr-22 01:28N 33°44' W 118°16'0 0.0
2018-Apr-22 00:58N 33°44' W 118°16'0 0.0
2018-Apr-22 00:28N 33°44' W 118°16'0 0.0
2018-Apr-21 23:58N 33°44' W 118°16'0 0.0
2018-Apr-21 23:28N 33°44' W 118°16'0 0.0
2018-Apr-21 22:58N 33°44' W 118°16'0 0.0
2018-Apr-21 22:28N 33°44' W 118°16'0 0.0
2018-Apr-21 21:58N 33°44' W 118°16'0 0.0
2018-Apr-21 21:28N 33°44' W 118°16'0 0.0
2018-Apr-21 20:58N 33°44' W 118°16'0 0.0
2018-Apr-21 20:28N 33°44' W 118°16'0 0.0
2018-Apr-21 19:58N 33°44' W 118°16'0 0.0
2018-Apr-21 19:28N 33°44' W 118°16'0 0.0
2018-Apr-21 18:58N 33°44' W 118°16'0 0.0
2018-Apr-21 18:28N 33°44' W 118°16'0 0.0
2018-Apr-21 17:58N 33°44' W 118°16'0 0.0
2018-Apr-21 17:28N 33°44' W 118°16'0 0.0
2018-Apr-21 16:58N 33°44' W 118°16'0 0.0
2018-Apr-21 16:28N 33°44' W 118°16'0 0.0
2018-Apr-21 15:58N 33°44' W 118°16'0 0.0
2018-Apr-21 15:28N 33°44' W 118°16'0 0.0
2018-Apr-21 14:58N 33°44' W 118°16'0 0.0
2018-Apr-21 14:28N 33°44' W 118°16'0 0.0
2018-Apr-21 13:58N 33°44' W 118°16'0 0.0
2018-Apr-21 13:28N 33°44' W 118°16'0 0.0
2018-Apr-21 12:58N 33°44' W 118°16'0 0.0
2018-Apr-21 12:28N 33°44' W 118°16'0 0.0
2018-Apr-21 11:58N 33°44' W 118°16'0 0.0
2018-Apr-21 11:28N 33°44' W 118°16'0 0.0
2018-Apr-21 10:58N 33°44' W 118°16'0 0.0
2018-Apr-21 10:28N 33°44' W 118°16'0 0.0
2018-Apr-21 09:58N 33°44' W 118°16'0 0.0
2018-Apr-21 09:28N 33°44' W 118°16'0 0.0
2018-Apr-21 08:58N 33°44' W 118°16'0 0.0
2018-Apr-21 08:28N 33°44' W 118°16'0 0.0
2018-Apr-21 07:58N 33°44' W 118°16'0 0.0
2018-Apr-21 07:28N 33°44' W 118°16'0 0.0
2018-Apr-21 06:58N 33°44' W 118°16'0 0.0
2018-Apr-21 06:28N 33°44' W 118°16'0 0.0
2018-Apr-21 05:58N 33°44' W 118°16'0 0.0
2018-Apr-21 05:28N 33°44' W 118°16'0 0.0
2018-Apr-21 04:55N 33°44' W 118°16'0 0.0
2018-Apr-21 04:28N 33°44' W 118°16'0 0.0
2018-Apr-21 03:58N 33°44' W 118°16'0 0.0
2018-Apr-21 03:28N 33°44' W 118°16'0 0.0
2018-Apr-21 02:58N 33°44' W 118°16'0 0.0
2018-Apr-21 02:28N 33°44' W 118°16'0 0.0
2018-Apr-21 01:58N 33°44' W 118°16'0 0.0
2018-Apr-21 01:25N 33°44' W 118°16'0 0.0
2018-Apr-21 00:58N 33°44' W 118°16'0 0.0
2018-Apr-21 00:25N 33°44' W 118°16'0 0.0
2018-Apr-20 23:58N 33°44' W 118°16'0 0.0
2018-Apr-20 23:28N 33°44' W 118°16'1 2.1
2018-Apr-20 22:59N 33°43' W 118°16'510.3
2018-Apr-20 22:30N 33°39' W 118°12'510.5
2018-Apr-20 22:00N 33°35' W 118°08'0 0.6
2018-Apr-20 21:27N 33°35' W 118°08'0 0.2
2018-Apr-20 20:55N 33°35' W 118°08'6 1.1
2018-Apr-20 15:39N 33°40' W 118°12'2 9.3
2018-Apr-20 15:29N 33°41' W 118°13'4 8.1
2018-Apr-20 15:00N 33°44' W 118°16'0 0.3
2018-Apr-20 14:29N 33°44' W 118°16'0 0.0
2018-Apr-20 13:59N 33°44' W 118°16'0 0.0
2018-Apr-20 13:29N 33°44' W 118°16'0 0.0
2018-Apr-20 12:59N 33°44' W 118°16'0 0.0
2018-Apr-20 12:29N 33°44' W 118°16'0 0.0
2018-Apr-20 11:59N 33°44' W 118°16'0 0.0
2018-Apr-20 11:29N 33°44' W 118°16'0 0.0
2018-Apr-20 10:59N 33°44' W 118°16'0 0.0
2018-Apr-20 10:29N 33°44' W 118°16'0 0.0
2018-Apr-20 09:59N 33°44' W 118°16'0 0.0
2018-Apr-20 09:29N 33°44' W 118°16'0 0.0
2018-Apr-20 08:59N 33°44' W 118°16'0 0.0
2018-Apr-20 08:26N 33°44' W 118°16'0 0.0
2018-Apr-20 07:59N 33°44' W 118°16'0 0.0
2018-Apr-20 07:29N 33°44' W 118°16'0 0.0
2018-Apr-20 06:59N 33°44' W 118°16'0 0.0
2018-Apr-20 06:29N 33°44' W 118°16'0 0.0
2018-Apr-20 05:59N 33°44' W 118°16'0 0.0
2018-Apr-20 05:29N 33°44' W 118°16'0 0.0
2018-Apr-20 04:59N 33°44' W 118°16'0 0.0
2018-Apr-20 04:29N 33°44' W 118°16'0 0.0
2018-Apr-20 03:59N 33°44' W 118°16'0 0.0
2018-Apr-20 03:26N 33°44' W 118°16'0 0.0
2018-Apr-20 02:59N 33°44' W 118°16'0 0.0
2018-Apr-20 02:29N 33°44' W 118°16'0 0.0
2018-Apr-20 01:59N 33°44' W 118°16'0 0.0
2018-Apr-20 01:29N 33°44' W 118°16'0 0.0
2018-Apr-20 00:59N 33°44' W 118°16'0 0.0
2018-Apr-20 00:29N 33°44' W 118°16'0 0.0
2018-Apr-19 23:56N 33°44' W 118°16'0 0.0
2018-Apr-19 23:29N 33°44' W 118°16'0 0.0
2018-Apr-19 22:59N 33°44' W 118°16'0 0.0
2018-Apr-19 22:29N 33°44' W 118°16'0 0.0
2018-Apr-19 21:54N 33°44' W 118°16'0 0.0
2018-Apr-19 21:29N 33°44' W 118°16'0 0.0
2018-Apr-19 20:59N 33°44' W 118°16'0 0.0
2018-Apr-19 20:29N 33°44' W 118°16'0 0.0
2018-Apr-19 19:59N 33°44' W 118°16'0 0.0
2018-Apr-19 19:29N 33°44' W 118°16'0 0.0
2018-Apr-19 18:59N 33°44' W 118°16'0 0.0
2018-Apr-19 18:29N 33°44' W 118°16'0 0.0
2018-Apr-19 17:59N 33°44' W 118°16'0 0.0
2018-Apr-19 17:29N 33°44' W 118°16'0 0.0
2018-Apr-19 16:59N 33°44' W 118°16'0 0.0
2018-Apr-19 16:29N 33°44' W 118°16'0 0.0
2018-Apr-19 15:59N 33°44' W 118°16'0 0.0
2018-Apr-19 15:29N 33°44' W 118°16'0 0.0
2018-Apr-19 14:59N 33°44' W 118°16'0 0.0
2018-Apr-19 14:29N 33°44' W 118°16'0 0.0
2018-Apr-19 13:59N 33°44' W 118°16'0 0.0
2018-Apr-19 13:26N 33°44' W 118°16'0 0.0
2018-Apr-19 12:59N 33°44' W 118°16'0 0.0
2018-Apr-19 12:29N 33°44' W 118°16'0 0.0
2018-Apr-19 11:59N 33°44' W 118°16'0 0.0
2018-Apr-19 11:29N 33°44' W 118°16'0 0.0
2018-Apr-19 10:59N 33°44' W 118°16'0 0.0
2018-Apr-19 10:29N 33°44' W 118°16'0 0.0
2018-Apr-19 09:59N 33°44' W 118°16'0 0.0
2018-Apr-19 09:29N 33°44' W 118°16'0 0.0
2018-Apr-19 08:59N 33°44' W 118°16'0 0.0
2018-Apr-19 08:29N 33°44' W 118°16'0 0.0
2018-Apr-19 07:59N 33°44' W 118°16'0 0.0
2018-Apr-19 07:29N 33°44' W 118°16'0 0.0
2018-Apr-19 06:59N 33°44' W 118°16'0 0.0
2018-Apr-19 06:29N 33°44' W 118°16'0 0.0
2018-Apr-19 05:59N 33°44' W 118°16'0 0.0
2018-Apr-19 05:29N 33°44' W 118°16'0 0.0
2018-Apr-19 04:59N 33°44' W 118°16'0 0.0
2018-Apr-19 04:29N 33°44' W 118°16'0 0.0
2018-Apr-19 03:59N 33°44' W 118°16'0 0.0
2018-Apr-19 03:26N 33°44' W 118°16'0 0.0
2018-Apr-19 02:59N 33°44' W 118°16'0 0.0
2018-Apr-19 02:29N 33°44' W 118°16'0 0.0
2018-Apr-19 01:59N 33°44' W 118°16'0 0.0
2018-Apr-19 01:29N 33°44' W 118°16'0 0.0
2018-Apr-19 00:59N 33°44' W 118°16'0 0.0
2018-Apr-19 00:29N 33°44' W 118°16'0 0.0
2018-Apr-18 23:59N 33°44' W 118°16'0 0.0
2018-Apr-18 23:29N 33°44' W 118°16'0 0.0
2018-Apr-18 22:11N 33°44' W 118°16'0 0.0
2018-Apr-18 21:59N 33°44' W 118°16'0 0.0
2018-Apr-18 21:29N 33°44' W 118°16'0 0.7
2018-Apr-18 20:59N 33°44' W 118°16'0 0.0
2018-Apr-18 20:29N 33°44' W 118°16'3 5.8
2018-Apr-18 19:59N 33°41' W 118°14'510.4
2018-Apr-18 19:30N 33°38' W 118°10'4 3.9
2018-Apr-18 18:37N 33°35' W 118°08'0 0.1
2018-Apr-18 18:30N 33°35' W 118°08'1 1.1
2018-Apr-18 17:25N 33°34' W 118°07'0 0.0
2018-Apr-18 16:54N 33°34' W 118°07'0 0.0
2018-Apr-18 16:25N 33°34' W 118°07'1 1.8
2018-Apr-18 15:55N 33°35' W 118°08'5 8.9
2018-Apr-18 15:25N 33°38' W 118°11'4 9.5
2018-Apr-18 15:00N 33°41' W 118°14'4 6.3
2018-Apr-18 14:26N 33°44' W 118°16'0 0.0
2018-Apr-18 13:59N 33°44' W 118°16'0 0.0
2018-Apr-18 13:29N 33°44' W 118°16'0 0.0
2018-Apr-18 12:59N 33°44' W 118°16'0 0.0
2018-Apr-18 12:29N 33°44' W 118°16'0 0.0
2018-Apr-18 11:59N 33°44' W 118°16'0 0.0
2018-Apr-18 11:26N 33°44' W 118°16'0 0.0
2018-Apr-18 10:59N 33°44' W 118°16'0 0.0
2018-Apr-18 10:29N 33°44' W 118°16'0 0.0
2018-Apr-18 09:59N 33°44' W 118°16'0 0.0
2018-Apr-18 09:29N 33°44' W 118°16'0 0.0
2018-Apr-18 08:59N 33°44' W 118°16'0 0.0
2018-Apr-18 08:29N 33°44' W 118°16'0 0.0
2018-Apr-18 07:59N 33°44' W 118°16'0 0.0
2018-Apr-18 07:29N 33°44' W 118°16'0 0.0
2018-Apr-18 06:59N 33°44' W 118°16'0 0.0
2018-Apr-18 06:29N 33°44' W 118°16'0 0.0
2018-Apr-18 05:59N 33°44' W 118°16'0 0.0
2018-Apr-18 05:29N 33°44' W 118°16'0 0.0
2018-Apr-18 04:56N 33°44' W 118°16'0 0.0
2018-Apr-18 04:29N 33°44' W 118°16'0 0.0
2018-Apr-18 03:59N 33°44' W 118°16'0 0.0
2018-Apr-18 02:53N 33°44' W 118°16'0 0.0
2018-Apr-18 02:29N 33°44' W 118°16'0 0.0
2018-Apr-18 01:59N 33°44' W 118°16'0 0.0
2018-Apr-18 01:29N 33°44' W 118°16'0 0.0
2018-Apr-18 00:59N 33°44' W 118°16'0 0.0
2018-Apr-18 00:29N 33°44' W 118°16'0 0.0
2018-Apr-17 23:59N 33°44' W 118°16'0 0.0
2018-Apr-17 23:26N 33°44' W 118°16'0 0.0
2018-Apr-17 22:59N 33°44' W 118°16'0 0.0
2018-Apr-17 22:29N 33°44' W 118°16'0 0.0
2018-Apr-17 21:59N 33°44' W 118°16'0 0.0
2018-Apr-17 21:26N 33°44' W 118°16'0 0.0
2018-Apr-17 20:59N 33°44' W 118°16'0 0.0
2018-Apr-17 20:29N 33°44' W 118°16'0 0.0
2018-Apr-17 19:59N 33°44' W 118°16'0 0.0
2018-Apr-17 19:29N 33°44' W 118°16'0 0.0
2018-Apr-17 18:59N 33°44' W 118°16'0 0.0
2018-Apr-17 18:26N 33°44' W 118°16'0 0.0
2018-Apr-17 17:59N 33°44' W 118°16'0 0.0
2018-Apr-17 17:29N 33°44' W 118°16'0 0.0
2018-Apr-17 16:59N 33°44' W 118°16'0 0.0
2018-Apr-17 16:29N 33°44' W 118°16'0 0.0
2018-Apr-17 15:59N 33°44' W 118°16'0 0.0
2018-Apr-17 15:29N 33°44' W 118°16'0 0.0
2018-Apr-17 14:59N 33°44' W 118°16'0 0.0
2018-Apr-17 14:29N 33°44' W 118°16'0 0.0
2018-Apr-17 13:59N 33°44' W 118°16'0 0.0
2018-Apr-17 13:29N 33°44' W 118°16'0 0.0
2018-Apr-17 12:59N 33°44' W 118°16'0 0.0
2018-Apr-17 12:29N 33°44' W 118°16'0 0.0
2018-Apr-17 11:56N 33°44' W 118°16'0 0.0
2018-Apr-17 11:29N 33°44' W 118°16'0 0.0
2018-Apr-17 10:59N 33°44' W 118°16'0 0.0
2018-Apr-17 10:29N 33°44' W 118°16'0 0.0
2018-Apr-17 09:59N 33°44' W 118°16'0 0.0
2018-Apr-17 09:29N 33°44' W 118°16'0 0.0
2018-Apr-17 08:59N 33°44' W 118°16'0 0.0
2018-Apr-17 08:29N 33°44' W 118°16'0 0.0
2018-Apr-17 07:59N 33°44' W 118°16'0 0.0
2018-Apr-17 07:23N 33°44' W 118°16'0 0.0
2018-Apr-17 06:59N 33°44' W 118°16'0 0.0
2018-Apr-17 06:29N 33°44' W 118°16'0 0.0
2018-Apr-17 05:56N 33°44' W 118°16'0 0.0
2018-Apr-17 05:29N 33°44' W 118°16'0 0.0
2018-Apr-17 04:59N 33°44' W 118°16'0 0.0
2018-Apr-17 04:29N 33°44' W 118°16'0 0.0
2018-Apr-17 03:59N 33°44' W 118°16'0 0.0
2018-Apr-17 03:29N 33°44' W 118°16'0 0.0
2018-Apr-17 02:59N 33°44' W 118°16'0 0.0
2018-Apr-17 02:29N 33°44' W 118°16'0 0.0
2018-Apr-17 01:59N 33°44' W 118°16'0 0.0
2018-Apr-17 01:29N 33°44' W 118°16'0 0.0
2018-Apr-17 00:59N 33°44' W 118°16'0 0.0
2018-Apr-17 00:29N 33°44' W 118°16'0 0.0
2018-Apr-16 23:59N 33°44' W 118°16'0 0.0
2018-Apr-16 23:29N 33°44' W 118°16'0 0.0
2018-Apr-16 22:58N 33°44' W 118°16'0 0.0
2018-Apr-16 22:25N 33°44' W 118°16'0 0.0
2018-Apr-16 21:58N 33°44' W 118°16'0 0.0
2018-Apr-16 21:28N 33°44' W 118°16'2 3.6
2018-Apr-16 21:00N 33°43' W 118°15'5 9.4
2018-Apr-16 20:30N 33°39' W 118°11'5 9.3
2018-Apr-16 20:00N 33°35' W 118°08'2 2.1
2018-Apr-16 19:10N 33°34' W 118°07'1 0.3
2018-Apr-16 15:37N 33°35' W 118°08'0 0.7
2018-Apr-16 15:23N 33°35' W 118°08'3 5.3
2018-Apr-16 14:52N 33°37' W 118°10'3 9.4
2018-Apr-16 14:30N 33°40' W 118°12'5 9.6
2018-Apr-16 14:01N 33°43' W 118°16'1 1.5
2018-Apr-16 13:28N 33°44' W 118°16'0 0.0
2018-Apr-16 12:58N 33°44' W 118°16'0 0.0
2018-Apr-16 12:28N 33°44' W 118°16'0 0.0
2018-Apr-16 11:59N 33°44' W 118°16'0 0.0
2018-Apr-16 11:29N 33°44' W 118°16'0 0.0
2018-Apr-16 10:59N 33°44' W 118°16'0 0.0
2018-Apr-16 10:29N 33°44' W 118°16'0 0.0
2018-Apr-16 09:59N 33°44' W 118°16'0 0.0
2018-Apr-16 09:26N 33°44' W 118°16'0 0.0
2018-Apr-16 08:59N 33°44' W 118°16'0 0.0
2018-Apr-16 08:29N 33°44' W 118°16'0 0.0
2018-Apr-16 07:59N 33°44' W 118°16'0 0.0
2018-Apr-16 07:26N 33°44' W 118°16'0 0.0
2018-Apr-16 06:59N 33°44' W 118°16'0 0.0
2018-Apr-16 06:29N 33°44' W 118°16'0 0.0
2018-Apr-16 05:59N 33°44' W 118°16'0 0.0
2018-Apr-16 05:23N 33°44' W 118°16'0 0.0
2018-Apr-16 04:56N 33°44' W 118°16'0 0.0
2018-Apr-16 04:29N 33°44' W 118°16'0 0.0
2018-Apr-16 03:59N 33°44' W 118°16'0 0.0
2018-Apr-16 03:29N 33°44' W 118°16'0 0.0
2018-Apr-16 02:59N 33°44' W 118°16'0 0.0
2018-Apr-16 02:26N 33°44' W 118°16'0 0.0
2018-Apr-16 01:59N 33°44' W 118°16'0 0.0
2018-Apr-16 01:29N 33°44' W 118°16'0 0.0
2018-Apr-16 00:59N 33°44' W 118°16'0 0.0
2018-Apr-16 00:29N 33°44' W 118°16'0 0.0
2018-Apr-15 23:59N 33°44' W 118°16'0 0.0
2018-Apr-15 23:29N 33°44' W 118°16'0 0.0
2018-Apr-15 22:56N 33°44' W 118°16'0 0.0
2018-Apr-15 22:29N 33°44' W 118°16'0 0.0
2018-Apr-15 21:59N 33°44' W 118°16'0 0.0
2018-Apr-15 21:26N 33°44' W 118°16'0 0.0
2018-Apr-15 20:59N 33°44' W 118°16'0 0.0
2018-Apr-15 20:29N 33°44' W 118°16'0 0.0
2018-Apr-15 19:59N 33°44' W 118°16'0 0.0
2018-Apr-15 19:29N 33°44' W 118°16'0 0.0
2018-Apr-15 18:59N 33°44' W 118°16'0 0.0
2018-Apr-15 18:29N 33°44' W 118°16'0 0.0
2018-Apr-15 17:59N 33°44' W 118°16'0 0.0
2018-Apr-15 17:29N 33°44' W 118°16'0 0.0
2018-Apr-15 16:56N 33°44' W 118°16'0 0.0
2018-Apr-15 16:29N 33°44' W 118°16'0 0.0
2018-Apr-15 15:59N 33°44' W 118°16'0 0.0
2018-Apr-15 15:29N 33°44' W 118°16'0 0.0
2018-Apr-15 14:59N 33°44' W 118°16'0 0.0
2018-Apr-15 14:29N 33°44' W 118°16'0 0.0
2018-Apr-15 13:59N 33°44' W 118°16'0 0.0
2018-Apr-15 13:29N 33°44' W 118°16'0 0.0
2018-Apr-15 12:59N 33°44' W 118°16'0 0.0
2018-Apr-15 12:29N 33°44' W 118°16'0 0.0
2018-Apr-15 11:59N 33°44' W 118°16'0 0.0
2018-Apr-15 11:29N 33°44' W 118°16'0 0.0
2018-Apr-15 10:59N 33°44' W 118°16'0 0.0
2018-Apr-15 10:29N 33°44' W 118°16'0 0.0
2018-Apr-15 09:59N 33°44' W 118°16'0 0.0
2018-Apr-15 09:29N 33°44' W 118°16'0 0.0
2018-Apr-15 08:59N 33°44' W 118°16'0 0.0
2018-Apr-15 08:29N 33°44' W 118°16'0 0.0
2018-Apr-15 07:59N 33°44' W 118°16'0 0.0
2018-Apr-15 07:29N 33°44' W 118°16'0 0.0
2018-Apr-15 06:59N 33°44' W 118°16'0 0.0
2018-Apr-15 06:29N 33°44' W 118°16'0 0.0
2018-Apr-15 05:56N 33°44' W 118°16'0 0.0
2018-Apr-15 05:29N 33°44' W 118°16'0 0.0
2018-Apr-15 04:59N 33°44' W 118°16'0 0.0
2018-Apr-15 04:29N 33°44' W 118°16'0 0.0
2018-Apr-15 03:59N 33°44' W 118°16'0 0.0
2018-Apr-15 03:29N 33°44' W 118°16'0 0.0
2018-Apr-15 02:59N 33°44' W 118°16'0 0.0
2018-Apr-15 02:29N 33°44' W 118°16'0 0.0
2018-Apr-15 01:59N 33°44' W 118°16'0 0.0
2018-Apr-15 01:26N 33°44' W 118°16'0 0.0
2018-Apr-15 00:59N 33°44' W 118°16'0 0.0
2018-Apr-15 00:29N 33°44' W 118°16'0 0.0
2018-Apr-14 23:59N 33°44' W 118°16'0 0.0
2018-Apr-14 23:29N 33°44' W 118°16'  
Track history (hours):
 
Tides and Currents Weather Stations Pressure Air Temp Water Temp Dewpoint Dewpoint Depression Visibility Wind Speed Wind Dir Waves Ship Positions

Kenneth Carl

Owner: So. Cal. Ship Services, Inc., San Pedro, CA. More information available from US FCC via Universal Licensing System and Coast Guard Vessel Documentation Center.

Last reported at 2018-Apr-24 23:00 UTC. Time now 2018-Apr-24 23:06 UTC.
Position N 33°44' W 118°16'.

Length 31 m; draft 3 m.

Type: Ship. MMSI: 367492920.

Date/timePositionNaut miles runAvg speedWind from/ knotsBaromVisibWave heightAir tempDewpointWater temp
2018-Apr-24 23:00N 33°44' W 118°16'0 0.0
2018-Apr-24 22:30N 33°44' W 118°16'0 0.0
2018-Apr-24 22:00N 33°44' W 118°16'0 0.0
2018-Apr-24 21:31N 33°44' W 118°16'0 0.0
2018-Apr-24 21:00N 33°44' W 118°16'0 0.0
2018-Apr-24 20:30N 33°44' W 118°16'0 0.0
2018-Apr-24 20:01N 33°44' W 118°16'0 0.0
2018-Apr-24 19:31N 33°44' W 118°16'0 0.0
2018-Apr-24 19:01N 33°44' W 118°16'0 0.0
2018-Apr-24 18:30N 33°44' W 118°16'0 0.0
2018-Apr-24 18:01N 33°44' W 118°16'0 0.0
2018-Apr-24 17:30N 33°44' W 118°16'0 0.0
2018-Apr-24 17:00N 33°44' W 118°16'0 0.0
2018-Apr-24 16:30N 33°44' W 118°16'0 0.0
2018-Apr-24 16:00N 33°44' W 118°16'0 0.0
2018-Apr-24 15:30N 33°44' W 118°16'0 0.0
2018-Apr-24 15:01N 33°44' W 118°16'0 0.0
2018-Apr-24 14:30N 33°44' W 118°16'0 0.0
2018-Apr-24 14:00N 33°44' W 118°16'0 0.0
2018-Apr-24 13:30N 33°44' W 118°16'0 0.0
2018-Apr-24 13:01N 33°44' W 118°16'0 0.0
2018-Apr-24 12:30N 33°44' W 118°16'0 0.0
2018-Apr-24 12:01N 33°44' W 118°16'0 0.0
2018-Apr-24 11:30N 33°44' W 118°16'0 0.0
2018-Apr-24 11:00N 33°44' W 118°16'0 0.0
2018-Apr-24 10:30N 33°44' W 118°16'0 0.0
2018-Apr-24 10:01N 33°44' W 118°16'0 0.0
2018-Apr-24 09:30N 33°44' W 118°16'0 0.0
2018-Apr-24 09:01N 33°44' W 118°16'0 0.0
2018-Apr-24 08:30N 33°44' W 118°16'0 0.0
2018-Apr-24 08:00N 33°44' W 118°16'0 0.0
2018-Apr-24 07:31N 33°44' W 118°16'0 0.0
2018-Apr-24 07:01N 33°44' W 118°16'0 0.0
2018-Apr-24 06:30N 33°44' W 118°16'0 0.0
2018-Apr-24 06:01N 33°44' W 118°16'0 0.0
2018-Apr-24 05:30N 33°44' W 118°16'0 0.0
2018-Apr-24 05:00N 33°44' W 118°16'0 0.0
2018-Apr-24 04:30N 33°44' W 118°16'0 0.0
2018-Apr-24 04:01N 33°44' W 118°16'0 0.0
2018-Apr-24 03:31N 33°44' W 118°16'0 0.0
2018-Apr-24 03:00N 33°44' W 118°16'0 0.0
2018-Apr-24 02:31N 33°44' W 118°16'0 0.0
2018-Apr-24 02:00N 33°44' W 118°16'0 0.0
2018-Apr-24 01:30N 33°44' W 118°16'0 0.0
2018-Apr-24 01:00N 33°44' W 118°16'0 0.0
2018-Apr-24 00:30N 33°44' W 118°16'0 0.0
2018-Apr-24 00:00N 33°44' W 118°16'0 0.0
2018-Apr-23 23:30N 33°44' W 118°16'0 0.0
2018-Apr-23 23:00N 33°44' W 118°16'4 8.2
2018-Apr-23 22:30N 33°41' W 118°13'810.0
2018-Apr-23 21:45N 33°35' W 118°08'1 3.8
2018-Apr-23 21:26N 33°34' W 118°07'1 1.7
2018-Apr-23 20:42N 33°35' W 118°08'0 0.2
2018-Apr-23 20:26N 33°35' W 118°08'0 0.0
2018-Apr-23 19:59N 33°35' W 118°08'0 0.0
2018-Apr-23 19:29N 33°35' W 118°08'0 0.0
2018-Apr-23 19:00N 33°35' W 118°08'0 0.0
2018-Apr-23 18:11N 33°35' W 118°08'0 0.0
2018-Apr-23 18:00N 33°35' W 118°08'4 3.4
2018-Apr-23 16:43N 33°38' W 118°11'210.0
2018-Apr-23 16:30N 33°40' W 118°13'5 9.5
2018-Apr-23 16:00N 33°44' W 118°16'0 0.8
2018-Apr-23 15:30N 33°44' W 118°16'0 0.0
2018-Apr-23 15:00N 33°44' W 118°16'0 0.0
2018-Apr-23 14:30N 33°44' W 118°16'0 0.0
2018-Apr-23 14:00N 33°44' W 118°16'0 0.7
2018-Apr-23 13:30N 33°44' W 118°16'0 0.0
2018-Apr-23 13:00N 33°44' W 118°16'0 0.0
2018-Apr-23 12:30N 33°44' W 118°16'0 0.7
2018-Apr-23 11:58N 33°44' W 118°16'0 0.0
2018-Apr-23 11:28N 33°44' W 118°16'0 0.0
2018-Apr-23 10:58N 33°44' W 118°16'0 0.0
2018-Apr-23 10:28N 33°44' W 118°16'0 0.0
2018-Apr-23 09:58N 33°44' W 118°16'0 0.0
2018-Apr-23 09:28N 33°44' W 118°16'0 0.0
2018-Apr-23 08:58N 33°44' W 118°16'0 0.0
2018-Apr-23 08:28N 33°44' W 118°16'0 0.0
2018-Apr-23 07:58N 33°44' W 118°16'0 0.0
2018-Apr-23 07:28N 33°44' W 118°16'0 0.0
2018-Apr-23 06:58N 33°44' W 118°16'0 0.0
2018-Apr-23 06:28N 33°44' W 118°16'0 0.0
2018-Apr-23 05:58N 33°44' W 118°16'0 0.0
2018-Apr-23 05:28N 33°44' W 118°16'0 0.0
2018-Apr-23 04:58N 33°44' W 118°16'0 0.0
2018-Apr-23 04:28N 33°44' W 118°16'0 0.0
2018-Apr-23 03:58N 33°44' W 118°16'0 0.0
2018-Apr-23 03:28N 33°44' W 118°16'0 0.0
2018-Apr-23 02:58N 33°44' W 118°16'0 0.0
2018-Apr-23 02:28N 33°44' W 118°16'0 0.0
2018-Apr-23 01:58N 33°44' W 118°16'0 0.0
2018-Apr-23 01:28N 33°44' W 118°16'0 0.0
2018-Apr-23 00:55N 33°44' W 118°16'0 0.0
2018-Apr-23 00:28N 33°44' W 118°16'0 0.0
2018-Apr-22 23:58N 33°44' W 118°16'0 0.0
2018-Apr-22 23:28N 33°44' W 118°16'0 0.0
2018-Apr-22 22:58N 33°44' W 118°16'0 0.0
2018-Apr-22 22:28N 33°44' W 118°16'0 0.0
2018-Apr-22 21:58N 33°44' W 118°16'0 0.0
2018-Apr-22 21:28N 33°44' W 118°16'0 0.0
2018-Apr-22 20:58N 33°44' W 118°16'0 0.0
2018-Apr-22 20:28N 33°44' W 118°16'0 0.0
2018-Apr-22 19:58N 33°44' W 118°16'0 0.0
2018-Apr-22 19:28N 33°44' W 118°16'0 0.0
2018-Apr-22 18:58N 33°44' W 118°16'0 0.0
2018-Apr-22 18:25N 33°44' W 118°16'0 0.0
2018-Apr-22 17:58N 33°44' W 118°16'0 0.0
2018-Apr-22 17:28N 33°44' W 118°16'0 0.0
2018-Apr-22 16:49N 33°44' W 118°16'0 0.0
2018-Apr-22 16:28N 33°44' W 118°16'0 0.0
2018-Apr-22 15:58N 33°44' W 118°16'0 0.0
2018-Apr-22 15:28N 33°44' W 118°16'0 0.0
2018-Apr-22 14:58N 33°44' W 118°16'0 0.0
2018-Apr-22 14:28N 33°44' W 118°16'0 0.0
2018-Apr-22 13:58N 33°44' W 118°16'0 0.0
2018-Apr-22 13:28N 33°44' W 118°16'0 0.0
2018-Apr-22 12:58N 33°44' W 118°16'0 0.0
2018-Apr-22 12:28N 33°44' W 118°16'0 0.0
2018-Apr-22 11:58N 33°44' W 118°16'0 0.0
2018-Apr-22 11:28N 33°44' W 118°16'0 0.0
2018-Apr-22 10:58N 33°44' W 118°16'0 0.0
2018-Apr-22 10:28N 33°44' W 118°16'0 0.0
2018-Apr-22 09:58N 33°44' W 118°16'0 0.0
2018-Apr-22 09:28N 33°44' W 118°16'0 0.0
2018-Apr-22 08:58N 33°44' W 118°16'0 0.0
2018-Apr-22 08:28N 33°44' W 118°16'0 0.0
2018-Apr-22 07:58N 33°44' W 118°16'0 0.0
2018-Apr-22 07:25N 33°44' W 118°16'0 0.0
2018-Apr-22 06:58N 33°44' W 118°16'0 0.0
2018-Apr-22 06:28N 33°44' W 118°16'0 0.0
2018-Apr-22 05:58N 33°44' W 118°16'0 0.0
2018-Apr-22 05:25N 33°44' W 118°16'0 0.0
2018-Apr-22 04:58N 33°44' W 118°16'0 0.0
2018-Apr-22 04:28N 33°44' W 118°16'0 0.0
2018-Apr-22 03:55N 33°44' W 118°16'0 0.0
2018-Apr-22 03:28N 33°44' W 118°16'0 0.0
2018-Apr-22 02:58N 33°44' W 118°16'0 0.0
2018-Apr-22 02:28N 33°44' W 118°16'0 0.0
2018-Apr-22 01:58N 33°44' W 118°16'0 0.0
2018-Apr-22 01:28N 33°44' W 118°16'0 0.0
2018-Apr-22 00:58N 33°44' W 118°16'0 0.0
2018-Apr-22 00:28N 33°44' W 118°16'0 0.0
2018-Apr-21 23:58N 33°44' W 118°16'0 0.0
2018-Apr-21 23:28N 33°44' W 118°16'0 0.0
2018-Apr-21 22:58N 33°44' W 118°16'0 0.0
2018-Apr-21 22:28N 33°44' W 118°16'0 0.0
2018-Apr-21 21:58N 33°44' W 118°16'0 0.0
2018-Apr-21 21:28N 33°44' W 118°16'0 0.0
2018-Apr-21 20:58N 33°44' W 118°16'0 0.0
2018-Apr-21 20:28N 33°44' W 118°16'0 0.0
2018-Apr-21 19:58N 33°44' W 118°16'0 0.0
2018-Apr-21 19:28N 33°44' W 118°16'0 0.0
2018-Apr-21 18:58N 33°44' W 118°16'0 0.0
2018-Apr-21 18:28N 33°44' W 118°16'0 0.0
2018-Apr-21 17:58N 33°44' W 118°16'0 0.0
2018-Apr-21 17:28N 33°44' W 118°16'0 0.0
2018-Apr-21 16:58N 33°44' W 118°16'0 0.0
2018-Apr-21 16:28N 33°44' W 118°16'0 0.0
2018-Apr-21 15:58N 33°44' W 118°16'0 0.0
2018-Apr-21 15:28N 33°44' W 118°16'0 0.0
2018-Apr-21 14:58N 33°44' W 118°16'0 0.0
2018-Apr-21 14:28N 33°44' W 118°16'0 0.0
2018-Apr-21 13:58N 33°44' W 118°16'0 0.0
2018-Apr-21 13:28N 33°44' W 118°16'0 0.0
2018-Apr-21 12:58N 33°44' W 118°16'0 0.0
2018-Apr-21 12:28N 33°44' W 118°16'0 0.0
2018-Apr-21 11:58N 33°44' W 118°16'0 0.0
2018-Apr-21 11:28N 33°44' W 118°16'0 0.0
2018-Apr-21 10:58N 33°44' W 118°16'0 0.0
2018-Apr-21 10:28N 33°44' W 118°16'0 0.0
2018-Apr-21 09:58N 33°44' W 118°16'0 0.0
2018-Apr-21 09:28N 33°44' W 118°16'0 0.0
2018-Apr-21 08:58N 33°44' W 118°16'0 0.0
2018-Apr-21 08:28N 33°44' W 118°16'0 0.0
2018-Apr-21 07:58N 33°44' W 118°16'0 0.0
2018-Apr-21 07:28N 33°44' W 118°16'0 0.0
2018-Apr-21 06:58N 33°44' W 118°16'0 0.0
2018-Apr-21 06:28N 33°44' W 118°16'0 0.0
2018-Apr-21 05:58N 33°44' W 118°16'0 0.0
2018-Apr-21 05:28N 33°44' W 118°16'0 0.0
2018-Apr-21 04:55N 33°44' W 118°16'0 0.0
2018-Apr-21 04:28N 33°44' W 118°16'0 0.0
2018-Apr-21 03:58N 33°44' W 118°16'0 0.0
2018-Apr-21 03:28N 33°44' W 118°16'0 0.0
2018-Apr-21 02:58N 33°44' W 118°16'0 0.0
2018-Apr-21 02:28N 33°44' W 118°16'0 0.0
2018-Apr-21 01:58N 33°44' W 118°16'0 0.0
2018-Apr-21 01:25N 33°44' W 118°16'0 0.0
2018-Apr-21 00:58N 33°44' W 118°16'0 0.0
2018-Apr-21 00:25N 33°44' W 118°16'0 0.0
2018-Apr-20 23:58N 33°44' W 118°16'0 0.0
2018-Apr-20 23:28N 33°44' W 118°16'1 2.1
2018-Apr-20 22:59N 33°43' W 118°16'510.3
2018-Apr-20 22:30N 33°39' W 118°12'510.5
2018-Apr-20 22:00N 33°35' W 118°08'0 0.6
2018-Apr-20 21:27N 33°35' W 118°08'0 0.2
2018-Apr-20 20:55N 33°35' W 118°08'6 1.1
2018-Apr-20 15:39N 33°40' W 118°12'2 9.3
2018-Apr-20 15:29N 33°41' W 118°13'4 8.1
2018-Apr-20 15:00N 33°44' W 118°16'0 0.3
2018-Apr-20 14:29N 33°44' W 118°16'0 0.0
2018-Apr-20 13:59N 33°44' W 118°16'0 0.0
2018-Apr-20 13:29N 33°44' W 118°16'0 0.0
2018-Apr-20 12:59N 33°44' W 118°16'0 0.0
2018-Apr-20 12:29N 33°44' W 118°16'0 0.0
2018-Apr-20 11:59N 33°44' W 118°16'0 0.0
2018-Apr-20 11:29N 33°44' W 118°16'0 0.0
2018-Apr-20 10:59N 33°44' W 118°16'0 0.0
2018-Apr-20 10:29N 33°44' W 118°16'0 0.0
2018-Apr-20 09:59N 33°44' W 118°16'0 0.0
2018-Apr-20 09:29N 33°44' W 118°16'0 0.0
2018-Apr-20 08:59N 33°44' W 118°16'0 0.0
2018-Apr-20 08:26N 33°44' W 118°16'0 0.0
2018-Apr-20 07:59N 33°44' W 118°16'0 0.0
2018-Apr-20 07:29N 33°44' W 118°16'0 0.0
2018-Apr-20 06:59N 33°44' W 118°16'0 0.0
2018-Apr-20 06:29N 33°44' W 118°16'0 0.0
2018-Apr-20 05:59N 33°44' W 118°16'0 0.0
2018-Apr-20 05:29N 33°44' W 118°16'0 0.0
2018-Apr-20 04:59N 33°44' W 118°16'0 0.0
2018-Apr-20 04:29N 33°44' W 118°16'0 0.0
2018-Apr-20 03:59N 33°44' W 118°16'0 0.0
2018-Apr-20 03:26N 33°44' W 118°16'0 0.0
2018-Apr-20 02:59N 33°44' W 118°16'0 0.0
2018-Apr-20 02:29N 33°44' W 118°16'0 0.0
2018-Apr-20 01:59N 33°44' W 118°16'0 0.0
2018-Apr-20 01:29N 33°44' W 118°16'0 0.0
2018-Apr-20 00:59N 33°44' W 118°16'0 0.0
2018-Apr-20 00:29N 33°44' W 118°16'0 0.0
2018-Apr-19 23:56N 33°44' W 118°16'0 0.0
2018-Apr-19 23:29N 33°44' W 118°16'0 0.0
2018-Apr-19 22:59N 33°44' W 118°16'0 0.0
2018-Apr-19 22:29N 33°44' W 118°16'0 0.0
2018-Apr-19 21:54N 33°44' W 118°16'0 0.0
2018-Apr-19 21:29N 33°44' W 118°16'0 0.0
2018-Apr-19 20:59N 33°44' W 118°16'0 0.0
2018-Apr-19 20:29N 33°44' W 118°16'0 0.0
2018-Apr-19 19:59N 33°44' W 118°16'0 0.0
2018-Apr-19 19:29N 33°44' W 118°16'0 0.0
2018-Apr-19 18:59N 33°44' W 118°16'0 0.0
2018-Apr-19 18:29N 33°44' W 118°16'0 0.0
2018-Apr-19 17:59N 33°44' W 118°16'0 0.0
2018-Apr-19 17:29N 33°44' W 118°16'0 0.0
2018-Apr-19 16:59N 33°44' W 118°16'0 0.0
2018-Apr-19 16:29N 33°44' W 118°16'0 0.0
2018-Apr-19 15:59N 33°44' W 118°16'0 0.0
2018-Apr-19 15:29N 33°44' W 118°16'0 0.0
2018-Apr-19 14:59N 33°44' W 118°16'0 0.0
2018-Apr-19 14:29N 33°44' W 118°16'0 0.0
2018-Apr-19 13:59N 33°44' W 118°16'0 0.0
2018-Apr-19 13:26N 33°44' W 118°16'0 0.0
2018-Apr-19 12:59N 33°44' W 118°16'0 0.0
2018-Apr-19 12:29N 33°44' W 118°16'0 0.0
2018-Apr-19 11:59N 33°44' W 118°16'0 0.0
2018-Apr-19 11:29N 33°44' W 118°16'0 0.0
2018-Apr-19 10:59N 33°44' W 118°16'0 0.0
2018-Apr-19 10:29N 33°44' W 118°16'0 0.0
2018-Apr-19 09:59N 33°44' W 118°16'0 0.0
2018-Apr-19 09:29N 33°44' W 118°16'0 0.0
2018-Apr-19 08:59N 33°44' W 118°16'0 0.0
2018-Apr-19 08:29N 33°44' W 118°16'0 0.0
2018-Apr-19 07:59N 33°44' W 118°16'0 0.0
2018-Apr-19 07:29N 33°44' W 118°16'0 0.0
2018-Apr-19 06:59N 33°44' W 118°16'0 0.0
2018-Apr-19 06:29N 33°44' W 118°16'0 0.0
2018-Apr-19 05:59N 33°44' W 118°16'0 0.0
2018-Apr-19 05:29N 33°44' W 118°16'0 0.0
2018-Apr-19 04:59N 33°44' W 118°16'0 0.0
2018-Apr-19 04:29N 33°44' W 118°16'0 0.0
2018-Apr-19 03:59N 33°44' W 118°16'0 0.0
2018-Apr-19 03:26N 33°44' W 118°16'0 0.0
2018-Apr-19 02:59N 33°44' W 118°16'0 0.0
2018-Apr-19 02:29N 33°44' W 118°16'0 0.0
2018-Apr-19 01:59N 33°44' W 118°16'0 0.0
2018-Apr-19 01:29N 33°44' W 118°16'0 0.0
2018-Apr-19 00:59N 33°44' W 118°16'0 0.0
2018-Apr-19 00:29N 33°44' W 118°16'0 0.0
2018-Apr-18 23:59N 33°44' W 118°16'0 0.0
2018-Apr-18 23:29N 33°44' W 118°16'0 0.0
2018-Apr-18 22:11N 33°44' W 118°16'0 0.0
2018-Apr-18 21:59N 33°44' W 118°16'0 0.0
2018-Apr-18 21:29N 33°44' W 118°16'0 0.7
2018-Apr-18 20:59N 33°44' W 118°16'0 0.0
2018-Apr-18 20:29N 33°44' W 118°16'3 5.8
2018-Apr-18 19:59N 33°41' W 118°14'510.4
2018-Apr-18 19:30N 33°38' W 118°10'4 3.9
2018-Apr-18 18:37N 33°35' W 118°08'0 0.1
2018-Apr-18 18:30N 33°35' W 118°08'1 1.1
2018-Apr-18 17:25N 33°34' W 118°07'0 0.0
2018-Apr-18 16:54N 33°34' W 118°07'0 0.0
2018-Apr-18 16:25N 33°34' W 118°07'1 1.8
2018-Apr-18 15:55N 33°35' W 118°08'5 8.9
2018-Apr-18 15:25N 33°38' W 118°11'4 9.5
2018-Apr-18 15:00N 33°41' W 118°14'4 6.3
2018-Apr-18 14:26N 33°44' W 118°16'0 0.0
2018-Apr-18 13:59N 33°44' W 118°16'0 0.0
2018-Apr-18 13:29N 33°44' W 118°16'0 0.0
2018-Apr-18 12:59N 33°44' W 118°16'0 0.0
2018-Apr-18 12:29N 33°44' W 118°16'0 0.0
2018-Apr-18 11:59N 33°44' W 118°16'0 0.0
2018-Apr-18 11:26N 33°44' W 118°16'0 0.0
2018-Apr-18 10:59N 33°44' W 118°16'0 0.0
2018-Apr-18 10:29N 33°44' W 118°16'0 0.0
2018-Apr-18 09:59N 33°44' W 118°16'0 0.0
2018-Apr-18 09:29N 33°44' W 118°16'0 0.0
2018-Apr-18 08:59N 33°44' W 118°16'0 0.0
2018-Apr-18 08:29N 33°44' W 118°16'0 0.0
2018-Apr-18 07:59N 33°44' W 118°16'0 0.0
2018-Apr-18 07:29N 33°44' W 118°16'0 0.0
2018-Apr-18 06:59N 33°44' W 118°16'0 0.0
2018-Apr-18 06:29N 33°44' W 118°16'0 0.0
2018-Apr-18 05:59N 33°44' W 118°16'0 0.0
2018-Apr-18 05:29N 33°44' W 118°16'0 0.0
2018-Apr-18 04:56N 33°44' W 118°16'0 0.0
2018-Apr-18 04:29N 33°44' W 118°16'0 0.0
2018-Apr-18 03:59N 33°44' W 118°16'0 0.0
2018-Apr-18 02:53N 33°44' W 118°16'0 0.0
2018-Apr-18 02:29N 33°44' W 118°16'0 0.0
2018-Apr-18 01:59N 33°44' W 118°16'0 0.0
2018-Apr-18 01:29N 33°44' W 118°16'0 0.0
2018-Apr-18 00:59N 33°44' W 118°16'0 0.0
2018-Apr-18 00:29N 33°44' W 118°16'0 0.0
2018-Apr-17 23:59N 33°44' W 118°16'0 0.0
2018-Apr-17 23:26N 33°44' W 118°16'0 0.0
2018-Apr-17 22:59N 33°44' W 118°16'0 0.0
2018-Apr-17 22:29N 33°44' W 118°16'0 0.0
2018-Apr-17 21:59N 33°44' W 118°16'0 0.0
2018-Apr-17 21:26N 33°44' W 118°16'0 0.0
2018-Apr-17 20:59N 33°44' W 118°16'0 0.0
2018-Apr-17 20:29N 33°44' W 118°16'0 0.0
2018-Apr-17 19:59N 33°44' W 118°16'0 0.0
2018-Apr-17 19:29N 33°44' W 118°16'0 0.0
2018-Apr-17 18:59N 33°44' W 118°16'0 0.0
2018-Apr-17 18:26N 33°44' W 118°16'0 0.0
2018-Apr-17 17:59N 33°44' W 118°16'0 0.0
2018-Apr-17 17:29N 33°44' W 118°16'0 0.0
2018-Apr-17 16:59N 33°44' W 118°16'0 0.0
2018-Apr-17 16:29N 33°44' W 118°16'0 0.0
2018-Apr-17 15:59N 33°44' W 118°16'0 0.0
2018-Apr-17 15:29N 33°44' W 118°16'0 0.0
2018-Apr-17 14:59N 33°44' W 118°16'0 0.0
2018-Apr-17 14:29N 33°44' W 118°16'0 0.0
2018-Apr-17 13:59N 33°44' W 118°16'0 0.0
2018-Apr-17 13:29N 33°44' W 118°16'0 0.0
2018-Apr-17 12:59N 33°44' W 118°16'0 0.0
2018-Apr-17 12:29N 33°44' W 118°16'0 0.0
2018-Apr-17 11:56N 33°44' W 118°16'0 0.0
2018-Apr-17 11:29N 33°44' W 118°16'0 0.0
2018-Apr-17 10:59N 33°44' W 118°16'0 0.0
2018-Apr-17 10:29N 33°44' W 118°16'0 0.0
2018-Apr-17 09:59N 33°44' W 118°16'0 0.0
2018-Apr-17 09:29N 33°44' W 118°16'0 0.0
2018-Apr-17 08:59N 33°44' W 118°16'0 0.0
2018-Apr-17 08:29N 33°44' W 118°16'0 0.0
2018-Apr-17 07:59N 33°44' W 118°16'0 0.0
2018-Apr-17 07:23N 33°44' W 118°16'0 0.0
2018-Apr-17 06:59N 33°44' W 118°16'0 0.0
2018-Apr-17 06:29N 33°44' W 118°16'0 0.0
2018-Apr-17 05:56N 33°44' W 118°16'0 0.0
2018-Apr-17 05:29N 33°44' W 118°16'0 0.0
2018-Apr-17 04:59N 33°44' W 118°16'0 0.0
2018-Apr-17 04:29N 33°44' W 118°16'0 0.0
2018-Apr-17 03:59N 33°44' W 118°16'0 0.0
2018-Apr-17 03:29N 33°44' W 118°16'0 0.0
2018-Apr-17 02:59N 33°44' W 118°16'0 0.0
2018-Apr-17 02:29N 33°44' W 118°16'0 0.0
2018-Apr-17 01:59N 33°44' W 118°16'0 0.0
2018-Apr-17 01:29N 33°44' W 118°16'0 0.0
2018-Apr-17 00:59N 33°44' W 118°16'0 0.0
2018-Apr-17 00:29N 33°44' W 118°16'0 0.0
2018-Apr-16 23:59N 33°44' W 118°16'0 0.0
2018-Apr-16 23:29N 33°44' W 118°16'0 0.0
2018-Apr-16 22:58N 33°44' W 118°16'0 0.0
2018-Apr-16 22:25N 33°44' W 118°16'0 0.0
2018-Apr-16 21:58N 33°44' W 118°16'0 0.0
2018-Apr-16 21:28N 33°44' W 118°16'2 3.6
2018-Apr-16 21:00N 33°43' W 118°15'5 9.4
2018-Apr-16 20:30N 33°39' W 118°11'5 9.3
2018-Apr-16 20:00N 33°35' W 118°08'2 2.1
2018-Apr-16 19:10N 33°34' W 118°07'1 0.3
2018-Apr-16 15:37N 33°35' W 118°08'0 0.7
2018-Apr-16 15:23N 33°35' W 118°08'3 5.3
2018-Apr-16 14:52N 33°37' W 118°10'3 9.4
2018-Apr-16 14:30N 33°40' W 118°12'5 9.6
2018-Apr-16 14:01N 33°43' W 118°16'1 1.5
2018-Apr-16 13:28N 33°44' W 118°16'0 0.0
2018-Apr-16 12:58N 33°44' W 118°16'0 0.0
2018-Apr-16 12:28N 33°44' W 118°16'0 0.0
2018-Apr-16 11:59N 33°44' W 118°16'0 0.0
2018-Apr-16 11:29N 33°44' W 118°16'0 0.0
2018-Apr-16 10:59N 33°44' W 118°16'0 0.0
2018-Apr-16 10:29N 33°44' W 118°16'0 0.0
2018-Apr-16 09:59N 33°44' W 118°16'0 0.0
2018-Apr-16 09:26N 33°44' W 118°16'0 0.0
2018-Apr-16 08:59N 33°44' W 118°16'0 0.0
2018-Apr-16 08:29N 33°44' W 118°16'0 0.0
2018-Apr-16 07:59N 33°44' W 118°16'0 0.0
2018-Apr-16 07:26N 33°44' W 118°16'0 0.0
2018-Apr-16 06:59N 33°44' W 118°16'0 0.0
2018-Apr-16 06:29N 33°44' W 118°16'0 0.0
2018-Apr-16 05:59N 33°44' W 118°16'0 0.0
2018-Apr-16 05:23N 33°44' W 118°16'0 0.0
2018-Apr-16 04:56N 33°44' W 118°16'0 0.0
2018-Apr-16 04:29N 33°44' W 118°16'0 0.0
2018-Apr-16 03:59N 33°44' W 118°16'0 0.0
2018-Apr-16 03:29N 33°44' W 118°16'0 0.0
2018-Apr-16 02:59N 33°44' W 118°16'0 0.0
2018-Apr-16 02:26N 33°44' W 118°16'0 0.0
2018-Apr-16 01:59N 33°44' W 118°16'0 0.0
2018-Apr-16 01:29N 33°44' W 118°16'0 0.0
2018-Apr-16 00:59N 33°44' W 118°16'0 0.0
2018-Apr-16 00:29N 33°44' W 118°16'0 0.0
2018-Apr-15 23:59N 33°44' W 118°16'0 0.0
2018-Apr-15 23:29N 33°44' W 118°16'0 0.0
2018-Apr-15 22:56N 33°44' W 118°16'0 0.0
2018-Apr-15 22:29N 33°44' W 118°16'0 0.0
2018-Apr-15 21:59N 33°44' W 118°16'0 0.0
2018-Apr-15 21:26N 33°44' W 118°16'0 0.0
2018-Apr-15 20:59N 33°44' W 118°16'0 0.0
2018-Apr-15 20:29N 33°44' W 118°16'0 0.0
2018-Apr-15 19:59N 33°44' W 118°16'0 0.0
2018-Apr-15 19:29N 33°44' W 118°16'0 0.0
2018-Apr-15 18:59N 33°44' W 118°16'0 0.0
2018-Apr-15 18:29N 33°44' W 118°16'0 0.0
2018-Apr-15 17:59N 33°44' W 118°16'0 0.0
2018-Apr-15 17:29N 33°44' W 118°16'0 0.0
2018-Apr-15 16:56N 33°44' W 118°16'0 0.0
2018-Apr-15 16:29N 33°44' W 118°16'0 0.0
2018-Apr-15 15:59N 33°44' W 118°16'0 0.0
2018-Apr-15 15:29N 33°44' W 118°16'0 0.0
2018-Apr-15 14:59N 33°44' W 118°16'0 0.0
2018-Apr-15 14:29N 33°44' W 118°16'0 0.0
2018-Apr-15 13:59N 33°44' W 118°16'0 0.0
2018-Apr-15 13:29N 33°44' W 118°16'0 0.0
2018-Apr-15 12:59N 33°44' W 118°16'0 0.0
2018-Apr-15 12:29N 33°44' W 118°16'0 0.0
2018-Apr-15 11:59N 33°44' W 118°16'0 0.0
2018-Apr-15 11:29N 33°44' W 118°16'0 0.0
2018-Apr-15 10:59N 33°44' W 118°16'0 0.0
2018-Apr-15 10:29N 33°44' W 118°16'0 0.0
2018-Apr-15 09:59N 33°44' W 118°16'0 0.0
2018-Apr-15 09:29N 33°44' W 118°16'0 0.0
2018-Apr-15 08:59N 33°44' W 118°16'0 0.0
2018-Apr-15 08:29N 33°44' W 118°16'0 0.0
2018-Apr-15 07:59N 33°44' W 118°16'0 0.0
2018-Apr-15 07:29N 33°44' W 118°16'0 0.0
2018-Apr-15 06:59N 33°44' W 118°16'0 0.0
2018-Apr-15 06:29N 33°44' W 118°16'0 0.0
2018-Apr-15 05:56N 33°44' W 118°16'0 0.0
2018-Apr-15 05:29N 33°44' W 118°16'0 0.0
2018-Apr-15 04:59N 33°44' W 118°16'0 0.0
2018-Apr-15 04:29N 33°44' W 118°16'0 0.0
2018-Apr-15 03:59N 33°44' W 118°16'0 0.0
2018-Apr-15 03:29N 33°44' W 118°16'0 0.0
2018-Apr-15 02:59N 33°44' W 118°16'0 0.0
2018-Apr-15 02:29N 33°44' W 118°16'0 0.0
2018-Apr-15 01:59N 33°44' W 118°16'0 0.0
2018-Apr-15 01:26N 33°44' W 118°16'0 0.0
2018-Apr-15 00:59N 33°44' W 118°16'0 0.0
2018-Apr-15 00:29N 33°44' W 118°16'0 0.0
2018-Apr-14 23:59N 33°44' W 118°16'0 0.0
2018-Apr-14 23:29N 33°44' W 118°16'  

Dump ship's entire track history